sensor_id;sensor_type;location;lat;lon;timestamp;pressure;altitude;pressure_sealevel;temperature;humidity
64792;BME280;51226;47.504;19.074;2022-11-20T00:02:11;99976.03;;;3.89;67.08
64792;BME280;51226;47.504;19.074;2022-11-20T00:05:14;99978.69;;;3.90;67.00
64792;BME280;51226;47.504;19.074;2022-11-20T00:08:16;99971.59;;;3.86;67.34
64792;BME280;51226;47.504;19.074;2022-11-20T00:11:21;99962.25;;;3.88;67.24
64792;BME280;51226;47.504;19.074;2022-11-20T00:14:24;99961.75;;;3.79;67.36
64792;BME280;51226;47.504;19.074;2022-11-20T00:17:27;99967.69;;;3.78;67.58
64792;BME280;51226;47.504;19.074;2022-11-20T00:20:30;99971.78;;;3.75;67.91
64792;BME280;51226;47.504;19.074;2022-11-20T00:23:33;99968.47;;;3.77;68.25
64792;BME280;51226;47.504;19.074;2022-11-20T00:26:36;99973.22;;;3.84;67.36
64792;BME280;51226;47.504;19.074;2022-11-20T00:29:39;99988.41;;;3.80;67.15
64792;BME280;51226;47.504;19.074;2022-11-20T00:32:42;99992.13;;;3.70;67.89
64792;BME280;51226;47.504;19.074;2022-11-20T00:35:45;99986.78;;;3.67;67.98
64792;BME280;51226;47.504;19.074;2022-11-20T00:38:54;99986.00;;;3.68;68.20
64792;BME280;51226;47.504;19.074;2022-11-20T00:41:58;100003.53;;;3.74;67.75
64792;BME280;51226;47.504;19.074;2022-11-20T00:45:01;100009.50;;;3.73;67.61
64792;BME280;51226;47.504;19.074;2022-11-20T00:48:04;100008.97;;;3.78;67.10
64792;BME280;51226;47.504;19.074;2022-11-20T00:51:06;99990.72;;;3.75;67.12
64792;BME280;51226;47.504;19.074;2022-11-20T00:54:10;99985.09;;;3.82;66.36
64792;BME280;51226;47.504;19.074;2022-11-20T00:57:12;99987.06;;;3.71;67.02
64792;BME280;51226;47.504;19.074;2022-11-20T01:00:15;99976.13;;;3.61;67.55
64792;BME280;51226;47.504;19.074;2022-11-20T01:03:18;99975.88;;;3.71;67.32
64792;BME280;51226;47.504;19.074;2022-11-20T01:06:36;99984.41;;;3.70;67.38
64792;BME280;51226;47.504;19.074;2022-11-20T01:09:39;99971.22;;;3.65;67.98
64792;BME280;51226;47.504;19.074;2022-11-20T01:12:42;99978.87;;;3.64;68.39
64792;BME280;51226;47.504;19.074;2022-11-20T01:15:45;99980.59;;;3.78;68.24
64792;BME280;51226;47.504;19.074;2022-11-20T01:18:51;99988.13;;;3.75;68.47
64792;BME280;51226;47.504;19.074;2022-11-20T01:21:54;99994.16;;;3.61;69.08
64792;BME280;51226;47.504;19.074;2022-11-20T01:24:57;99986.44;;;3.61;69.51
64792;BME280;51226;47.504;19.074;2022-11-20T01:27:59;99987.16;;;3.58;69.75
64792;BME280;51226;47.504;19.074;2022-11-20T01:31:17;99984.09;;;3.50;70.35
64792;BME280;51226;47.504;19.074;2022-11-20T01:34:21;99988.09;;;3.45;70.80
64792;BME280;51226;47.504;19.074;2022-11-20T01:37:25;99980.38;;;3.45;71.11
64792;BME280;51226;47.504;19.074;2022-11-20T01:40:27;99971.31;;;3.52;71.13
64792;BME280;51226;47.504;19.074;2022-11-20T01:43:30;99955.94;;;3.53;71.38
64792;BME280;51226;47.504;19.074;2022-11-20T01:46:36;99957.91;;;3.43;71.79
64792;BME280;51226;47.504;19.074;2022-11-20T01:49:48;99962.31;;;3.45;71.77
64792;BME280;51226;47.504;19.074;2022-11-20T01:52:56;99958.88;;;3.45;71.81
64792;BME280;51226;47.504;19.074;2022-11-20T01:56:06;99957.91;;;3.43;72.08
64792;BME280;51226;47.504;19.074;2022-11-20T01:59:10;99952.66;;;3.41;72.46
64792;BME280;51226;47.504;19.074;2022-11-20T02:02:16;99950.16;;;3.43;72.40
64792;BME280;51226;47.504;19.074;2022-11-20T02:05:39;99954.97;;;3.51;72.18
64792;BME280;51226;47.504;19.074;2022-11-20T02:08:44;99947.56;;;3.28;73.05
64792;BME280;51226;47.504;19.074;2022-11-20T02:11:47;99950.56;;;3.36;73.03
64792;BME280;51226;47.504;19.074;2022-11-20T02:14:50;99961.16;;;3.40;73.24
64792;BME280;51226;47.504;19.074;2022-11-20T02:17:53;99966.59;;;3.45;72.99
64792;BME280;51226;47.504;19.074;2022-11-20T02:21:04;99962.78;;;3.38;72.97
64792;BME280;51226;47.504;19.074;2022-11-20T02:24:15;99965.53;;;3.41;72.97
64792;BME280;51226;47.504;19.074;2022-11-20T02:27:20;99958.50;;;3.53;72.56
64792;BME280;51226;47.504;19.074;2022-11-20T02:30:23;99965.75;;;3.59;72.43
64792;BME280;51226;47.504;19.074;2022-11-20T02:33:26;99961.81;;;3.51;72.67
64792;BME280;51226;47.504;19.074;2022-11-20T02:36:30;99954.69;;;3.47;73.02
64792;BME280;51226;47.504;19.074;2022-11-20T02:39:34;99936.19;;;3.54;72.80
64792;BME280;51226;47.504;19.074;2022-11-20T02:42:37;99928.12;;;3.63;72.42
64792;BME280;51226;47.504;19.074;2022-11-20T02:45:40;99933.28;;;3.63;72.68
64792;BME280;51226;47.504;19.074;2022-11-20T02:48:43;99931.69;;;3.65;72.54
64792;BME280;51226;47.504;19.074;2022-11-20T02:51:45;99939.13;;;3.75;72.21
64792;BME280;51226;47.504;19.074;2022-11-20T02:54:48;99936.84;;;3.65;72.47
64792;BME280;51226;47.504;19.074;2022-11-20T02:57:51;99941.44;;;3.56;73.11
64792;BME280;51226;47.504;19.074;2022-11-20T03:00:54;99937.09;;;3.69;72.32
64792;BME280;51226;47.504;19.074;2022-11-20T03:03:58;99928.47;;;3.69;72.20
64792;BME280;51226;47.504;19.074;2022-11-20T03:07:01;99924.72;;;3.64;72.28
64792;BME280;51226;47.504;19.074;2022-11-20T03:10:04;99919.28;;;3.74;72.23
64792;BME280;51226;47.504;19.074;2022-11-20T03:13:07;99914.12;;;3.74;71.96
64792;BME280;51226;47.504;19.074;2022-11-20T03:16:12;99916.28;;;3.81;71.60
64792;BME280;51226;47.504;19.074;2022-11-20T03:19:15;99916.28;;;3.81;71.37
64792;BME280;51226;47.504;19.074;2022-11-20T03:22:21;99922.06;;;3.77;71.37
64792;BME280;51226;47.504;19.074;2022-11-20T03:25:24;99931.22;;;3.72;71.55
64792;BME280;51226;47.504;19.074;2022-11-20T03:28:26;99941.25;;;3.67;72.20
64792;BME280;51226;47.504;19.074;2022-11-20T03:31:37;99940.28;;;3.80;71.33
64792;BME280;51226;47.504;19.074;2022-11-20T03:34:40;99947.56;;;3.87;70.71
64792;BME280;51226;47.504;19.074;2022-11-20T03:37:43;99944.94;;;3.71;71.58
64792;BME280;51226;47.504;19.074;2022-11-20T03:40:46;99933.19;;;3.76;71.80
64792;BME280;51226;47.504;19.074;2022-11-20T03:43:49;99933.31;;;3.94;70.39
64792;BME280;51226;47.504;19.074;2022-11-20T03:46:52;99911.41;;;3.86;70.54
64792;BME280;51226;47.504;19.074;2022-11-20T03:49:55;99922.16;;;3.79;70.67
64792;BME280;51226;47.504;19.074;2022-11-20T03:52:58;99922.59;;;3.86;70.31
64792;BME280;51226;47.504;19.074;2022-11-20T03:56:00;99918.22;;;3.85;70.52
64792;BME280;51226;47.504;19.074;2022-11-20T03:59:04;99927.94;;;3.89;70.36
64792;BME280;51226;47.504;19.074;2022-11-20T04:02:07;99922.31;;;3.97;69.66
64792;BME280;51226;47.504;19.074;2022-11-20T04:05:10;99922.13;;;3.94;69.85
64792;BME280;51226;47.504;19.074;2022-11-20T04:08:12;99912.47;;;3.89;69.92
64792;BME280;51226;47.504;19.074;2022-11-20T04:11:25;99917.97;;;3.81;70.30
64792;BME280;51226;47.504;19.074;2022-11-20T04:14:28;99914.78;;;3.85;70.62
64792;BME280;51226;47.504;19.074;2022-11-20T04:17:31;99921.94;;;3.90;69.33
64792;BME280;51226;47.504;19.074;2022-11-20T04:20:35;99907.59;;;3.79;69.77
64792;BME280;51226;47.504;19.074;2022-11-20T04:23:38;99895.00;;;3.85;69.87
64792;BME280;51226;47.504;19.074;2022-11-20T04:26:41;99898.81;;;3.92;69.96
64792;BME280;51226;47.504;19.074;2022-11-20T04:29:44;99884.75;;;4.02;69.07
64792;BME280;51226;47.504;19.074;2022-11-20T04:32:47;99891.72;;;3.88;69.61
64792;BME280;51226;47.504;19.074;2022-11-20T04:35:50;99891.91;;;3.91;70.05
64792;BME280;51226;47.504;19.074;2022-11-20T04:38:54;99892.00;;;3.93;70.34
64792;BME280;51226;47.504;19.074;2022-11-20T04:41:59;99897.50;;;3.84;70.87
64792;BME280;51226;47.504;19.074;2022-11-20T04:45:21;99899.47;;;3.88;70.80
64792;BME280;51226;47.504;19.074;2022-11-20T04:48:26;99901.78;;;3.83;71.07
64792;BME280;51226;47.504;19.074;2022-11-20T04:51:29;99898.31;;;3.83;71.14
64792;BME280;51226;47.504;19.074;2022-11-20T04:54:32;99882.94;;;3.84;71.01
64792;BME280;51226;47.504;19.074;2022-11-20T04:57:34;99863.28;;;3.86;70.83
64792;BME280;51226;47.504;19.074;2022-11-20T05:00:37;99868.59;;;3.89;70.66
64792;BME280;51226;47.504;19.074;2022-11-20T05:03:41;99862.44;;;3.87;70.55
64792;BME280;51226;47.504;19.074;2022-11-20T05:06:45;99861.84;;;3.92;70.27
64792;BME280;51226;47.504;19.074;2022-11-20T05:09:47;99865.03;;;3.87;70.47
64792;BME280;51226;47.504;19.074;2022-11-20T05:12:51;99876.63;;;3.79;70.78
64792;BME280;51226;47.504;19.074;2022-11-20T05:15:53;99891.66;;;3.86;70.71
64792;BME280;51226;47.504;19.074;2022-11-20T05:18:56;99884.09;;;3.89;70.53
64792;BME280;51226;47.504;19.074;2022-11-20T05:21:59;99875.78;;;3.95;70.70
64792;BME280;51226;47.504;19.074;2022-11-20T05:25:02;99879.41;;;3.99;70.26
64792;BME280;51226;47.504;19.074;2022-11-20T05:28:05;99865.19;;;3.90;70.89
64792;BME280;51226;47.504;19.074;2022-11-20T05:31:14;99857.56;;;3.92;71.34
64792;BME280;51226;47.504;19.074;2022-11-20T05:34:17;99848.63;;;4.02;70.53
64792;BME280;51226;47.504;19.074;2022-11-20T05:37:20;99851.50;;;3.92;71.16
64792;BME280;51226;47.504;19.074;2022-11-20T05:40:22;99839.75;;;3.97;71.33
64792;BME280;51226;47.504;19.074;2022-11-20T05:43:25;99842.78;;;4.04;71.07
64792;BME280;51226;47.504;19.074;2022-11-20T05:46:28;99839.38;;;4.05;70.95
64792;BME280;51226;47.504;19.074;2022-11-20T05:49:32;99848.47;;;3.99;71.87
64792;BME280;51226;47.504;19.074;2022-11-20T05:52:34;99857.16;;;4.01;72.32
64792;BME280;51226;47.504;19.074;2022-11-20T05:55:37;99861.63;;;4.03;72.45
64792;BME280;51226;47.504;19.074;2022-11-20T05:58:40;99859.31;;;4.08;71.19
64792;BME280;51226;47.504;19.074;2022-11-20T06:01:43;99874.25;;;3.99;70.85
64792;BME280;51226;47.504;19.074;2022-11-20T06:04:46;99873.56;;;4.01;70.92
64792;BME280;51226;47.504;19.074;2022-11-20T06:07:49;99872.81;;;4.04;70.32
64792;BME280;51226;47.504;19.074;2022-11-20T06:10:52;99870.31;;;4.05;70.35
64792;BME280;51226;47.504;19.074;2022-11-20T06:13:55;99869.44;;;4.05;70.46
64792;BME280;51226;47.504;19.074;2022-11-20T06:16:57;99888.81;;;4.13;69.66
64792;BME280;51226;47.504;19.074;2022-11-20T06:20:01;99886.16;;;4.12;70.02
64792;BME280;51226;47.504;19.074;2022-11-20T06:23:03;99868.19;;;4.13;70.27
64792;BME280;51226;47.504;19.074;2022-11-20T06:26:11;99861.41;;;4.15;70.11
64792;BME280;51226;47.504;19.074;2022-11-20T06:29:14;99866.56;;;4.15;70.11
64792;BME280;51226;47.504;19.074;2022-11-20T06:32:17;99871.13;;;4.19;69.66
64792;BME280;51226;47.504;19.074;2022-11-20T06:35:20;99868.84;;;4.25;69.17
64792;BME280;51226;47.504;19.074;2022-11-20T06:38:27;99887.00;;;4.27;69.45
64792;BME280;51226;47.504;19.074;2022-11-20T06:41:30;99899.28;;;4.31;68.88
64792;BME280;51226;47.504;19.074;2022-11-20T06:44:33;99905.41;;;4.33;68.91
64792;BME280;51226;47.504;19.074;2022-11-20T06:47:36;99913.50;;;4.39;68.58
64792;BME280;51226;47.504;19.074;2022-11-20T06:50:38;99918.03;;;4.43;68.54
64792;BME280;51226;47.504;19.074;2022-11-20T06:53:41;99911.50;;;4.50;68.77
64792;BME280;51226;47.504;19.074;2022-11-20T06:56:47;99908.59;;;4.60;68.24
64792;BME280;51226;47.504;19.074;2022-11-20T06:59:50;99912.06;;;4.61;67.93
64792;BME280;51226;47.504;19.074;2022-11-20T07:02:53;99907.31;;;4.69;68.10
64792;BME280;51226;47.504;19.074;2022-11-20T07:05:58;99889.75;;;4.78;67.30
64792;BME280;51226;47.504;19.074;2022-11-20T07:09:02;99890.53;;;4.77;67.04
64792;BME280;51226;47.504;19.074;2022-11-20T07:12:10;99886.59;;;4.83;66.70
64792;BME280;51226;47.504;19.074;2022-11-20T07:15:12;99889.88;;;4.81;66.81
64792;BME280;51226;47.504;19.074;2022-11-20T07:18:15;99896.84;;;4.82;66.85
64792;BME280;51226;47.504;19.074;2022-11-20T07:21:18;99896.75;;;4.80;67.65
64792;BME280;51226;47.504;19.074;2022-11-20T07:24:21;99903.88;;;4.85;68.16
64792;BME280;51226;47.504;19.074;2022-11-20T07:27:24;99910.72;;;5.00;67.11
64792;BME280;51226;47.504;19.074;2022-11-20T07:30:27;99909.91;;;4.85;68.09
64792;BME280;51226;47.504;19.074;2022-11-20T07:33:32;99915.09;;;4.85;68.82
64792;BME280;51226;47.504;19.074;2022-11-20T07:36:35;99915.81;;;4.99;69.08
64792;BME280;51226;47.504;19.074;2022-11-20T07:39:38;99925.09;;;5.12;69.77
64792;BME280;51226;47.504;19.074;2022-11-20T07:42:54;99927.69;;;5.12;71.89
64792;BME280;51226;47.504;19.074;2022-11-20T07:45:58;99926.56;;;5.07;71.74
64792;BME280;51226;47.504;19.074;2022-11-20T07:49:01;99928.56;;;5.12;70.79
64792;BME280;51226;47.504;19.074;2022-11-20T07:52:04;99922.75;;;5.16;70.64
64792;BME280;51226;47.504;19.074;2022-11-20T07:55:08;99932.06;;;5.13;71.39
64792;BME280;51226;47.504;19.074;2022-11-20T07:58:11;99936.31;;;5.12;71.39
64792;BME280;51226;47.504;19.074;2022-11-20T08:01:14;99924.50;;;5.17;70.92
64792;BME280;51226;47.504;19.074;2022-11-20T08:04:17;99928.56;;;5.12;70.73
64792;BME280;51226;47.504;19.074;2022-11-20T08:07:20;99914.75;;;5.12;71.03
64792;BME280;51226;47.504;19.074;2022-11-20T08:10:23;99908.13;;;5.17;70.95
64792;BME280;51226;47.504;19.074;2022-11-20T08:13:28;99906.09;;;5.28;70.87
64792;BME280;51226;47.504;19.074;2022-11-20T08:16:49;99903.22;;;5.39;70.60
64792;BME280;51226;47.504;19.074;2022-11-20T08:19:52;99908.91;;;5.32;70.53
64792;BME280;51226;47.504;19.074;2022-11-20T08:23:03;99916.47;;;5.46;70.14
64792;BME280;51226;47.504;19.074;2022-11-20T08:26:08;99914.56;;;5.42;70.09
64792;BME280;51226;47.504;19.074;2022-11-20T08:29:11;99906.97;;;5.45;70.17
64792;BME280;51226;47.504;19.074;2022-11-20T08:32:13;99904.09;;;5.56;70.20
64792;BME280;51226;47.504;19.074;2022-11-20T08:35:16;99911.50;;;5.67;70.17
64792;BME280;51226;47.504;19.074;2022-11-20T08:38:19;99901.44;;;5.73;70.01
64792;BME280;51226;47.504;19.074;2022-11-20T08:41:22;99898.94;;;5.74;69.96
64792;BME280;51226;47.504;19.074;2022-11-20T08:44:30;99899.91;;;5.77;70.10
64792;BME280;51226;47.504;19.074;2022-11-20T08:47:33;99915.09;;;5.87;69.86
64792;BME280;51226;47.504;19.074;2022-11-20T08:50:36;99917.66;;;5.87;69.89
64792;BME280;51226;47.504;19.074;2022-11-20T08:53:39;99913.69;;;5.93;70.09
64792;BME280;51226;47.504;19.074;2022-11-20T08:56:42;99913.12;;;5.99;70.02
64792;BME280;51226;47.504;19.074;2022-11-20T08:59:45;99916.00;;;6.05;69.71
64792;BME280;51226;47.504;19.074;2022-11-20T09:03:08;99917.19;;;6.12;69.99
64792;BME280;51226;47.504;19.074;2022-11-20T09:06:11;99927.91;;;6.20;70.34
64792;BME280;51226;47.504;19.074;2022-11-20T09:09:14;99929.31;;;6.31;69.60
64792;BME280;51226;47.504;19.074;2022-11-20T09:12:17;99930.94;;;6.29;69.65
64792;BME280;51226;47.504;19.074;2022-11-20T09:15:19;99938.31;;;6.39;69.09
64792;BME280;51226;47.504;19.074;2022-11-20T09:18:23;99934.22;;;6.25;69.91
64792;BME280;51226;47.504;19.074;2022-11-20T09:21:26;99933.37;;;6.26;70.44
64792;BME280;51226;47.504;19.074;2022-11-20T09:24:29;99939.66;;;6.31;71.08
64792;BME280;51226;47.504;19.074;2022-11-20T09:27:32;99954.56;;;6.35;70.85
64792;BME280;51226;47.504;19.074;2022-11-20T09:30:35;99942.56;;;6.37;69.73
64792;BME280;51226;47.504;19.074;2022-11-20T09:33:38;99939.16;;;6.38;69.24
64792;BME280;51226;47.504;19.074;2022-11-20T09:36:41;99933.37;;;6.44;69.01
64792;BME280;51226;47.504;19.074;2022-11-20T09:39:43;99931.63;;;6.62;67.90
64792;BME280;51226;47.504;19.074;2022-11-20T09:42:56;99923.94;;;6.64;68.38
64792;BME280;51226;47.504;19.074;2022-11-20T09:49:32;99917.22;;;6.87;67.44
64792;BME280;51226;47.504;19.074;2022-11-20T09:52:54;99915.72;;;6.92;67.40
64792;BME280;51226;47.504;19.074;2022-11-20T09:56:00;99918.63;;;7.00;66.90
64792;BME280;51226;47.504;19.074;2022-11-20T09:59:06;99914.00;;;7.12;66.30
64792;BME280;51226;47.504;19.074;2022-11-20T10:05:28;99908.69;;;7.09;66.91
64792;BME280;51226;47.504;19.074;2022-11-20T10:09:01;99904.09;;;7.23;66.34
64792;BME280;51226;47.504;19.074;2022-11-20T10:12:15;99902.91;;;7.36;65.81
64792;BME280;51226;47.504;19.074;2022-11-20T10:16:30;99896.78;;;7.34;66.13
64792;BME280;51226;47.504;19.074;2022-11-20T10:23:11;99882.13;;;7.76;64.48
64792;BME280;51226;47.504;19.074;2022-11-20T10:30:12;99857.25;;;8.25;62.51
64792;BME280;51226;47.504;19.074;2022-11-20T10:33:19;99857.81;;;8.41;62.60
64792;BME280;51226;47.504;19.074;2022-11-20T10:36:28;99856.37;;;8.71;61.44
64792;BME280;51226;47.504;19.074;2022-11-20T10:42:46;99855.78;;;9.28;58.83
64792;BME280;51226;47.504;19.074;2022-11-20T10:45:55;99858.00;;;9.42;59.20
64792;BME280;51226;47.504;19.074;2022-11-20T10:48:59;99853.72;;;9.70;57.43
64792;BME280;51226;47.504;19.074;2022-11-20T10:55:33;99841.50;;;11.14;53.09
64792;BME280;51226;47.504;19.074;2022-11-20T10:58:47;99846.84;;;11.87;51.15
64792;BME280;51226;47.504;19.074;2022-11-20T11:01:53;99856.25;;;12.15;49.73
64792;BME280;51226;47.504;19.074;2022-11-20T11:04:56;99854.88;;;12.31;49.42
64792;BME280;51226;47.504;19.074;2022-11-20T11:08:00;99870.75;;;12.40;48.99
64792;BME280;51226;47.504;19.074;2022-11-20T11:14:14;99873.03;;;12.25;49.00
64792;BME280;51226;47.504;19.074;2022-11-20T11:17:29;99876.69;;;11.95;51.01
64792;BME280;51226;47.504;19.074;2022-11-20T11:20:33;99871.47;;;11.62;50.68
64792;BME280;51226;47.504;19.074;2022-11-20T11:23:39;99872.41;;;11.30;50.78
64792;BME280;51226;47.504;19.074;2022-11-20T11:26:55;99870.66;;;10.98;52.29
64792;BME280;51226;47.504;19.074;2022-11-20T11:30:13;99866.56;;;10.77;52.82
64792;BME280;51226;47.504;19.074;2022-11-20T11:33:28;99868.16;;;10.72;52.79
64792;BME280;51226;47.504;19.074;2022-11-20T11:36:32;99869.81;;;10.68;53.55
64792;BME280;51226;47.504;19.074;2022-11-20T11:39:36;99866.22;;;10.65;53.34
64792;BME280;51226;47.504;19.074;2022-11-20T11:42:48;99865.41;;;10.67;53.28
64792;BME280;51226;47.504;19.074;2022-11-20T11:45:54;99857.66;;;10.69;54.28
64792;BME280;51226;47.504;19.074;2022-11-20T11:58:55;99844.31;;;10.29;54.74
64792;BME280;51226;47.504;19.074;2022-11-20T12:02:01;99838.19;;;10.29;54.32
64792;BME280;51226;47.504;19.074;2022-11-20T12:05:16;99836.53;;;10.31;54.51
64792;BME280;51226;47.504;19.074;2022-11-20T12:11:48;99836.28;;;10.52;54.56
64792;BME280;51226;47.504;19.074;2022-11-20T12:14:54;99840.16;;;10.65;53.79
64792;BME280;51226;47.504;19.074;2022-11-20T12:17:59;99850.44;;;10.60;53.88
64792;BME280;51226;47.504;19.074;2022-11-20T12:34:47;99827.06;;;9.78;56.30
64792;BME280;51226;47.504;19.074;2022-11-20T12:38:21;99823.56;;;9.76;56.48
64792;BME280;51226;47.504;19.074;2022-11-20T12:45:12;99825.44;;;9.55;57.41
64792;BME280;51226;47.504;19.074;2022-11-20T12:48:29;99832.97;;;9.45;57.86
64792;BME280;51226;47.504;19.074;2022-11-20T12:58:23;99838.09;;;9.18;58.73
64792;BME280;51226;47.504;19.074;2022-11-20T13:01:40;99842.44;;;9.18;59.18
64792;BME280;51226;47.504;19.074;2022-11-20T13:08:18;99848.03;;;9.04;58.86
64792;BME280;51226;47.504;19.074;2022-11-20T13:11:33;99838.56;;;9.06;58.85
64792;BME280;51226;47.504;19.074;2022-11-20T13:18:04;99848.91;;;9.05;58.29
64792;BME280;51226;47.504;19.074;2022-11-20T13:21:22;99850.25;;;8.94;59.03
64792;BME280;51226;47.504;19.074;2022-11-20T13:24:28;99850.16;;;8.90;60.06
64792;BME280;51226;47.504;19.074;2022-11-20T13:27:32;99841.50;;;8.92;60.49
64792;BME280;51226;47.504;19.074;2022-11-20T13:30:36;99833.13;;;8.99;60.65
64792;BME280;51226;47.504;19.074;2022-11-20T13:33:39;99834.16;;;9.04;60.43
64792;BME280;51226;47.504;19.074;2022-11-20T13:36:50;99830.97;;;9.13;60.31
64792;BME280;51226;47.504;19.074;2022-11-20T13:43:20;99828.59;;;9.19;58.85
64792;BME280;51226;47.504;19.074;2022-11-20T13:46:41;99817.66;;;9.03;59.55
64792;BME280;51226;47.504;19.074;2022-11-20T13:49:46;99803.44;;;8.94;60.24
64792;BME280;51226;47.504;19.074;2022-11-20T13:59:56;99811.31;;;8.71;61.06
64792;BME280;51226;47.504;19.074;2022-11-20T14:06:20;99805.75;;;8.62;61.74
64792;BME280;51226;47.504;19.074;2022-11-20T14:09:30;99803.78;;;8.55;61.79
64792;BME280;51226;47.504;19.074;2022-11-20T14:12:34;99802.56;;;8.45;62.15
64792;BME280;51226;47.504;19.074;2022-11-20T14:15:36;99802.19;;;8.35;62.30
64792;BME280;51226;47.504;19.074;2022-11-20T14:18:46;99801.16;;;8.30;62.23
64792;BME280;51226;47.504;19.074;2022-11-20T14:21:54;99807.03;;;8.26;62.60
64792;BME280;51226;47.504;19.074;2022-11-20T14:25:24;99809.19;;;8.14;63.39
64792;BME280;51226;47.504;19.074;2022-11-20T14:28:30;99813.06;;;8.03;63.07
64792;BME280;51226;47.504;19.074;2022-11-20T14:31:33;99809.41;;;7.97;63.37
64792;BME280;51226;47.504;19.074;2022-11-20T14:34:39;99822.19;;;7.93;63.83
64792;BME280;51226;47.504;19.074;2022-11-20T14:37:43;99820.38;;;7.90;63.61
64792;BME280;51226;47.504;19.074;2022-11-20T14:40:45;99836.72;;;7.88;63.90
64792;BME280;51226;47.504;19.074;2022-11-20T14:43:56;99840.91;;;7.84;64.17
64792;BME280;51226;47.504;19.074;2022-11-20T14:47:01;99842.44;;;7.79;64.90
64792;BME280;51226;47.504;19.074;2022-11-20T14:50:13;99842.16;;;7.73;65.19
64792;BME280;51226;47.504;19.074;2022-11-20T14:53:23;99840.28;;;7.69;65.21
64792;BME280;51226;47.504;19.074;2022-11-20T14:56:26;99841.97;;;7.68;64.66
64792;BME280;51226;47.504;19.074;2022-11-20T14:59:34;99839.84;;;7.58;65.17
64792;BME280;51226;47.504;19.074;2022-11-20T15:02:45;99837.75;;;7.49;65.80
64792;BME280;51226;47.504;19.074;2022-11-20T15:05:50;99845.59;;;7.51;66.98
64792;BME280;51226;47.504;19.074;2022-11-20T15:08:53;99849.72;;;7.46;67.04
64792;BME280;51226;47.504;19.074;2022-11-20T15:11:59;99855.59;;;7.41;66.50
64792;BME280;51226;47.504;19.074;2022-11-20T15:15:03;99854.72;;;7.41;66.81
64792;BME280;51226;47.504;19.074;2022-11-20T15:18:12;99857.88;;;7.34;66.69
64792;BME280;51226;47.504;19.074;2022-11-20T15:21:18;99851.69;;;7.30;66.85
64792;BME280;51226;47.504;19.074;2022-11-20T15:24:21;99850.41;;;7.20;67.15
64792;BME280;51226;47.504;19.074;2022-11-20T15:27:24;99851.00;;;7.15;67.32
64792;BME280;51226;47.504;19.074;2022-11-20T15:30:27;99854.94;;;7.05;67.38
64792;BME280;51226;47.504;19.074;2022-11-20T15:33:31;99847.81;;;7.01;67.67
64792;BME280;51226;47.504;19.074;2022-11-20T15:36:34;99857.81;;;6.92;68.03
64792;BME280;51226;47.504;19.074;2022-11-20T15:39:37;99857.66;;;6.89;68.38
64792;BME280;51226;47.504;19.074;2022-11-20T15:42:40;99852.19;;;6.82;68.68
64792;BME280;51226;47.504;19.074;2022-11-20T15:46:06;99861.84;;;6.85;68.80
64792;BME280;51226;47.504;19.074;2022-11-20T15:49:16;99859.56;;;6.73;68.85
64792;BME280;51226;47.504;19.074;2022-11-20T15:52:21;99871.50;;;6.70;69.19
64792;BME280;51226;47.504;19.074;2022-11-20T15:55:24;99865.44;;;6.69;69.24
64792;BME280;51226;47.504;19.074;2022-11-20T15:58:27;99858.38;;;6.66;69.48
64792;BME280;51226;47.504;19.074;2022-11-20T16:01:30;99856.56;;;6.64;69.77
64792;BME280;51226;47.504;19.074;2022-11-20T16:04:33;99855.69;;;6.63;70.00
64792;BME280;51226;47.504;19.074;2022-11-20T16:07:36;99859.81;;;6.60;70.26
64792;BME280;51226;47.504;19.074;2022-11-20T16:10:41;99858.81;;;6.56;70.23
64792;BME280;51226;47.504;19.074;2022-11-20T16:13:45;99864.97;;;6.58;70.20
64792;BME280;51226;47.504;19.074;2022-11-20T16:17:07;99871.09;;;6.60;70.44
64792;BME280;51226;47.504;19.074;2022-11-20T16:20:13;99863.84;;;6.53;70.61
64792;BME280;51226;47.504;19.074;2022-11-20T16:23:16;99856.22;;;6.56;69.72
64792;BME280;51226;47.504;19.074;2022-11-20T16:26:19;99856.63;;;6.46;70.21
64792;BME280;51226;47.504;19.074;2022-11-20T16:29:23;99848.91;;;6.47;70.42
64792;BME280;51226;47.504;19.074;2022-11-20T16:32:25;99851.34;;;6.44;70.45
64792;BME280;51226;47.504;19.074;2022-11-20T16:35:30;99860.78;;;6.42;70.60
64792;BME280;51226;47.504;19.074;2022-11-20T16:38:33;99854.78;;;6.43;70.59
64792;BME280;51226;47.504;19.074;2022-11-20T16:41:36;99853.81;;;6.41;70.85
64792;BME280;51226;47.504;19.074;2022-11-20T16:44:40;99851.09;;;6.38;71.10
64792;BME280;51226;47.504;19.074;2022-11-20T16:47:43;99858.66;;;6.34;71.51
64792;BME280;51226;47.504;19.074;2022-11-20T16:50:48;99844.78;;;6.33;71.50
64792;BME280;51226;47.504;19.074;2022-11-20T16:53:53;99840.75;;;6.38;70.73
64792;BME280;51226;47.504;19.074;2022-11-20T16:56:59;99837.56;;;6.26;71.36
64792;BME280;51226;47.504;19.074;2022-11-20T17:00:02;99841.72;;;6.22;71.64
64792;BME280;51226;47.504;19.074;2022-11-20T17:03:06;99843.22;;;6.17;72.14
64792;BME280;51226;47.504;19.074;2022-11-20T17:06:19;99831.75;;;6.12;72.14
64792;BME280;51226;47.504;19.074;2022-11-20T17:09:22;99832.34;;;6.06;72.37
64792;BME280;51226;47.504;19.074;2022-11-20T17:12:25;99828.81;;;6.04;72.55
64792;BME280;51226;47.504;19.074;2022-11-20T17:15:28;99821.88;;;6.03;72.58
64792;BME280;51226;47.504;19.074;2022-11-20T17:18:31;99813.03;;;6.00;72.63
64792;BME280;51226;47.504;19.074;2022-11-20T17:21:34;99812.94;;;5.97;72.68
64792;BME280;51226;47.504;19.074;2022-11-20T17:24:41;99812.03;;;5.96;72.96
64792;BME280;51226;47.504;19.074;2022-11-20T17:27:43;99805.06;;;5.95;73.30
64792;BME280;51226;47.504;19.074;2022-11-20T17:30:46;99797.16;;;5.92;73.19
64792;BME280;51226;47.504;19.074;2022-11-20T17:33:50;99806.47;;;5.88;72.89
64792;BME280;51226;47.504;19.074;2022-11-20T17:36:53;99810.72;;;5.88;73.01
64792;BME280;51226;47.504;19.074;2022-11-20T17:39:57;99802.84;;;5.85;72.90
64792;BME280;51226;47.504;19.074;2022-11-20T17:43:00;99802.69;;;5.82;73.16
64792;BME280;51226;47.504;19.074;2022-11-20T17:46:05;99798.47;;;5.84;72.81